Northwest Florida Regional Airport/Eglin Air Force Base

Airport
ICAO code: 
KVPS
Summary
ICAO Region: 
NAM
Territory: 
Location: 
Valparaiso, Florida,
Coordinates: 
Aerial View: 
30° 29' 3.542" N, 86° 31' 48.061" W
Metar
Observation
KVPS 040736Z 00000KT 4SM BR OVC001 13/13 A3008 RMK AO2A VIS 1/4 RWY12 VIS 1 5/8 RWY19 SLP193 $
Station
Valparaiso / Eglin Air Force Base
Date/Time
2021-12-04 07:36:00
Wind direction
Wind speed
00 kts
Lowest cloud amount
overcast
Temperature
13°C
Dew point
13°C
Humidity
100%
Weather condition
mist

Description

Northwest Florida Regional Airport is a joint use civil/military airport located within Eglin Air Force Base, near Valparaiso and Fort Walton Beach in Okaloosa County, Florida. Civil use is restricted to commercial traffic only.

Climatology

Humid “subtropical” climate (Köppen climate classification Cfa) - characterized by hot, humid summers and cool winters. Significant amounts of precipitation occur in all seasons in most areas.

Runways

Designator Length Width Surface Rops
1/19 3052 91 ASP Yes/Yes
12/30 3659 91 ASP Yes/Yes
Airport map: 
Aerial View: 

SKYbrary Partners:

Safety knowledge contributed by: